createdAt,value
2017-02-03T00:00:28.784Z,98.16
2017-02-03T00:01:09.449Z,98.25
2017-02-03T00:01:50.143Z,98.06
2017-02-03T00:02:30.729Z,98.35
2017-02-03T00:03:11.292Z,98.54
2017-02-03T00:03:51.960Z,98.63
2017-02-03T00:04:32.608Z,98.63
2017-02-03T00:05:13.261Z,98.25
2017-02-03T00:05:53.912Z,98.35
2017-02-03T00:06:34.585Z,98.54
2017-02-03T00:07:15.312Z,98.54
2017-02-03T00:07:55.961Z,98.35
2017-02-03T00:08:36.608Z,98.91
2017-02-03T00:09:17.172Z,99.01
2017-02-03T00:09:57.837Z,98.91
2017-02-03T00:10:38.570Z,99.01
2017-02-03T00:11:19.134Z,99.2
2017-02-03T00:11:59.789Z,99.2
2017-02-03T00:12:40.531Z,98.82
2017-02-03T00:13:21.962Z,98.91
2017-02-03T00:14:02.677Z,98.91
2017-02-03T00:14:43.402Z,98.91
2017-02-03T00:15:23.972Z,98.91
2017-02-03T00:16:04.627Z,98.82
2017-02-03T00:16:45.258Z,98.54
2017-02-03T00:17:25.825Z,99.01
2017-02-03T00:18:06.502Z,98.82
2017-02-03T00:18:47.217Z,98.72
2017-02-03T00:19:27.867Z,98.44
2017-02-03T00:20:08.536Z,98.91
2017-02-03T00:20:49.188Z,98.72
2017-02-03T00:21:29.945Z,98.82
2017-02-03T00:22:11.608Z,98.72
2017-02-03T00:22:52.258Z,98.35
2017-02-03T00:23:32.826Z,98.35
2017-02-03T00:24:13.466Z,98.54
2017-02-03T00:24:54.185Z,98.63
2017-02-03T00:25:34.759Z,98.82
2017-02-03T00:26:15.441Z,99.01
2017-02-03T00:26:56.015Z,98.82
2017-02-03T00:27:36.748Z,98.91
2017-02-03T00:28:17.448Z,98.91
2017-02-03T00:28:58.149Z,98.91
2017-02-03T00:29:38.811Z,98.72
2017-02-03T00:30:19.488Z,98.82
2017-02-03T00:31:00.217Z,98.35
2017-02-03T00:31:40.892Z,98.82
2017-02-03T00:32:21.523Z,99.1
2017-02-03T00:33:02.189Z,98.35
2017-02-03T00:33:42.857Z,98.44
2017-02-03T00:34:23.571Z,98.35
2017-02-03T00:35:04.156Z,98.63
2017-02-03T00:35:44.734Z,98.44
2017-02-03T00:36:25.363Z,98.82
2017-02-03T00:37:06.048Z,98.82
2017-02-03T00:37:46.757Z,98.35
2017-02-03T00:38:27.343Z,98.63
2017-02-03T00:39:07.942Z,98.35
2017-02-03T00:39:48.670Z,98.35
2017-02-03T00:40:29.337Z,98.35
2017-02-03T00:41:09.928Z,98.35
2017-02-03T00:41:50.669Z,98.35
2017-02-03T00:42:31.360Z,98.63
2017-02-03T00:43:12.060Z,98.82
2017-02-03T00:43:52.651Z,98.63
2017-02-03T00:44:33.394Z,98.54
2017-02-03T00:45:14.020Z,98.82
2017-02-03T00:45:54.590Z,98.44
2017-02-03T00:46:35.347Z,98.35
2017-02-03T00:47:16.076Z,98.54
2017-02-03T00:47:56.661Z,98.54
2017-02-03T00:48:37.409Z,98.72
2017-02-03T00:49:18.162Z,98.82
2017-02-03T00:49:58.828Z,98.82
2017-02-03T00:50:39.458Z,98.72
2017-02-03T00:51:20.150Z,98.82
2017-02-03T00:52:00.865Z,98.72
2017-02-03T00:52:41.646Z,98.72
2017-02-03T00:53:22.379Z,98.72
2017-02-03T00:54:03.029Z,98.72
2017-02-03T00:54:43.705Z,98.82
2017-02-03T00:55:24.438Z,98.54
2017-02-03T00:56:05.090Z,98.82
2017-02-03T00:56:45.746Z,98.54
2017-02-03T00:57:26.386Z,98.91
2017-02-03T00:58:07.048Z,98.82
2017-02-03T00:58:47.737Z,98.91
2017-02-03T00:59:29.468Z,98.72
2017-02-03T01:00:10.052Z,98.82
2017-02-03T01:00:50.788Z,98.82
2017-02-03T01:01:31.379Z,98.63
2017-02-03T01:02:12.027Z,98.54
2017-02-03T01:02:52.739Z,98.63
2017-02-03T01:03:33.301Z,99.01
2017-02-03T01:04:14.074Z,98.91
2017-02-03T01:04:54.753Z,98.82
2017-02-03T01:05:35.451Z,98.72
2017-02-03T01:06:16.038Z,98.82
2017-02-03T01:06:56.767Z,98.82
2017-02-03T01:07:37.464Z,98.72
2017-02-03T01:08:18.049Z,98.91
2017-02-03T01:08:58.726Z,98.91
2017-02-03T01:09:39.372Z,98.82
2017-02-03T01:10:20.080Z,98.82
2017-02-03T01:11:00.655Z,98.82
2017-02-03T01:11:41.377Z,98.72
2017-02-03T01:12:22.095Z,98.82
2017-02-03T01:13:02.646Z,99.05
2017-02-03T01:13:43.398Z,98.91
2017-02-03T01:14:24.091Z,99.2
2017-02-03T01:15:04.808Z,99.2
2017-02-03T01:15:45.561Z,99.1
2017-02-03T01:16:26.214Z,99.1
2017-02-03T01:17:06.881Z,99.2
2017-02-03T01:17:47.625Z,99.2
2017-02-03T01:18:28.376Z,99.01
2017-02-03T01:19:09.030Z,99.1
2017-02-03T01:19:49.686Z,99.1
2017-02-03T01:20:30.435Z,99.2
2017-02-03T01:21:11.095Z,99.2
2017-02-03T01:21:51.754Z,99.15
2017-02-03T01:22:32.519Z,99.2
2017-02-03T01:23:13.267Z,99.29
2017-02-03T01:23:53.945Z,99.48
2017-02-03T01:24:34.513Z,99.24
2017-02-03T01:25:15.075Z,99.29
2017-02-03T01:25:55.767Z,99.29
2017-02-03T01:26:36.456Z,99.2
2017-02-03T01:27:17.162Z,99.48
2017-02-03T01:27:57.715Z,99.29
2017-02-03T01:28:38.412Z,99.39
2017-02-03T01:29:19.239Z,99.39
2017-02-03T01:29:59.883Z,99.1
2017-02-03T01:30:40.557Z,99.58
2017-02-03T01:31:21.299Z,99.29
2017-02-03T01:32:02.066Z,99.58
2017-02-03T01:32:42.820Z,99.48
2017-02-03T01:33:23.573Z,99.1
2017-02-03T01:34:04.355Z,99.1
2017-02-03T01:34:45.069Z,99.1
2017-02-03T01:35:25.736Z,99.2
2017-02-03T01:36:06.493Z,99.1
2017-02-03T01:36:48.169Z,99.2
2017-02-03T01:37:28.928Z,99.05
2017-02-03T01:38:09.570Z,99.05
2017-02-03T01:38:50.324Z,99.1
2017-02-03T01:39:31.085Z,99.1
2017-02-03T01:40:11.746Z,99.29
2017-02-03T01:40:52.392Z,99.99
2017-02-03T01:41:33.150Z,99.01
2017-02-03T01:42:13.893Z,99.29
2017-02-03T01:42:54.567Z,99.2
2017-02-03T01:43:35.311Z,99.05
2017-02-03T01:44:16.988Z,99.1
2017-02-03T01:44:57.728Z,99.1
2017-02-03T01:45:38.399Z,99.29
2017-02-03T01:46:19.153Z,99.29
2017-02-03T01:46:59.909Z,98.96
2017-02-03T01:47:40.662Z,99.01
2017-02-03T01:48:21.409Z,99.86
2017-02-03T01:49:03.096Z,99.86
2017-02-03T01:49:43.857Z,99.86
2017-02-03T01:50:24.600Z,99.86
2017-02-03T01:51:05.345Z,99.81
2017-02-03T01:51:46.016Z,99.86
2017-02-03T01:52:26.771Z,99.86
2017-02-03T01:53:07.525Z,99.86
2017-02-03T01:53:48.214Z,99.86
2017-02-03T01:54:28.795Z,99.67
2017-02-03T01:55:09.372Z,99.67
2017-02-03T01:55:50.044Z,99.67
2017-02-03T01:56:30.709Z,99.67
2017-02-03T01:57:11.314Z,99.99
2017-02-03T01:57:51.872Z,99.77
2017-02-03T01:58:33.267Z,99.77
2017-02-03T01:59:13.912Z,99.67
2017-02-03T01:59:54.570Z,99.67
2017-02-03T02:00:35.220Z,99.86
2017-02-03T02:01:15.870Z,99.67
2017-02-03T02:01:56.508Z,99.58
2017-02-03T02:02:37.166Z,99.67
2017-02-03T02:03:17.827Z,99.77
2017-02-03T02:03:58.459Z,99.67
2017-02-03T02:04:39.027Z,99.77
2017-02-03T02:05:19.681Z,99.67
2017-02-03T02:06:00.315Z,99.58
2017-02-03T02:06:40.892Z,99.58
2017-02-03T02:07:21.562Z,99.58
2017-02-03T02:08:02.173Z,99.67
2017-02-03T02:08:42.740Z,99.58
2017-02-03T02:09:23.394Z,99.86
2017-02-03T02:10:03.990Z,99.86
2017-02-03T02:10:44.578Z,99.67
2017-02-03T02:11:25.167Z,99.67
2017-02-03T02:12:05.805Z,99.86
2017-02-03T02:12:46.498Z,99.96
2017-02-03T02:13:27.094Z,99.99
2017-02-03T02:14:07.659Z,99.86
2017-02-03T02:14:48.319Z,99.86
2017-02-03T02:15:28.964Z,99.86
2017-02-03T02:16:09.617Z,99.86
2017-02-03T02:16:50.271Z,99.67
2017-02-03T02:17:30.922Z,99.86
2017-02-03T02:18:11.600Z,99.86
2017-02-03T02:18:52.271Z,99.86
2017-02-03T02:19:32.861Z,99.58
2017-02-03T02:20:13.430Z,99.86
2017-02-03T02:20:54.093Z,99.99
2017-02-03T02:21:34.701Z,99.86
2017-02-03T02:22:15.297Z,99.86
2017-02-03T02:22:55.875Z,99.86
2017-02-03T02:23:36.549Z,99.86
2017-02-03T02:24:17.156Z,99.67
2017-02-03T02:24:58.748Z,99.86
2017-02-03T02:25:39.396Z,99.86
2017-02-03T02:26:20.055Z,99.67
2017-02-03T02:27:00.737Z,99.77
2017-02-03T02:27:41.356Z,99.77
2017-02-03T02:28:22.003Z,99.77
2017-02-03T02:29:02.656Z,99.77
2017-02-03T02:29:43.324Z,99.58
2017-02-03T02:30:23.960Z,99.77
2017-02-03T02:31:04.622Z,99.77
2017-02-03T02:31:46.336Z,99.67
2017-02-03T02:32:26.948Z,99.67
2017-02-03T02:33:07.596Z,99.58
2017-02-03T02:33:48.258Z,99.67
2017-02-03T02:34:28.914Z,99.67
2017-02-03T02:35:10.596Z,99.58
2017-02-03T02:35:52.255Z,99.67
2017-02-03T02:36:33.942Z,99.67
2017-02-03T02:37:14.592Z,99.86
2017-02-03T02:37:57.224Z,99.58
2017-02-03T02:38:37.836Z,99.77
2017-02-03T02:39:18.486Z,99.58
2017-02-03T02:39:59.042Z,99.58
2017-02-03T02:40:39.692Z,99.58
2017-02-03T02:41:20.334Z,99.77
2017-02-03T02:42:00.895Z,99.86
2017-02-03T02:42:41.546Z,99.77
2017-02-03T02:43:22.186Z,99.77
2017-02-03T02:44:02.840Z,99.77
2017-02-03T02:44:43.500Z,99.67
2017-02-03T02:45:24.141Z,99.77
2017-02-03T02:46:04.797Z,99.58
2017-02-03T02:46:45.449Z,99.77
2017-02-03T02:47:26.101Z,99.29
2017-02-03T02:48:06.796Z,99.77
2017-02-03T02:48:47.323Z,99.67
2017-02-03T02:49:29.922Z,99.67
2017-02-03T02:50:10.511Z,99.96
2017-02-03T02:50:51.109Z,99.96
2017-02-03T02:51:31.675Z,99.39
2017-02-03T02:52:12.325Z,99.99
2017-02-03T02:52:52.916Z,99.99
2017-02-03T02:53:33.513Z,99.86
2017-02-03T02:54:14.078Z,99.99
2017-02-03T02:54:54.768Z,99.96
2017-02-03T02:55:35.354Z,99.96
2017-02-03T02:56:15.924Z,99.86
2017-02-03T02:56:56.500Z,99.99
2017-02-03T02:57:37.144Z,99.86
2017-02-03T02:58:17.748Z,99.67
2017-02-03T02:58:58.341Z,99.86
2017-02-03T02:59:38.893Z,99.86
2017-02-03T03:00:19.559Z,99.86
2017-02-03T03:01:00.162Z,99.96
2017-02-03T03:01:40.723Z,99.86
2017-02-03T03:02:22.325Z,99.86
2017-02-03T03:03:02.921Z,99.86
2017-02-03T03:03:43.512Z,99.86
2017-02-03T03:04:24.168Z,99.99
2017-02-03T03:05:04.817Z,99.99
2017-02-03T03:05:45.471Z,99.86
2017-02-03T03:06:27.151Z,99.99
2017-02-03T03:07:07.802Z,99.96
2017-02-03T03:07:48.461Z,99.96
2017-02-03T03:08:29.123Z,99.99
2017-02-03T03:09:09.690Z,99.99
2017-02-03T03:09:50.324Z,99.99
2017-02-03T03:10:30.947Z,99.99
2017-02-03T03:11:11.616Z,99.96
2017-02-03T03:11:52.178Z,99.99
2017-02-03T03:12:32.850Z,99.99
2017-02-03T03:13:13.522Z,99.99
2017-02-03T03:13:54.126Z,99.67
2017-02-03T03:14:34.782Z,99.86
2017-02-03T03:15:15.439Z,99.99
2017-02-03T03:15:56.091Z,99.99
2017-02-03T03:16:36.746Z,99.96
2017-02-03T03:17:17.400Z,99.99
2017-02-03T03:17:58.053Z,99.99
2017-02-03T03:18:38.624Z,99.99
2017-02-03T03:19:19.284Z,99.86
2017-02-03T03:19:59.968Z,99.99
2017-02-03T03:20:40.556Z,99.99
2017-02-03T03:21:21.170Z,99.99
2017-02-03T03:22:02.789Z,99.96
2017-02-03T03:22:43.379Z,99.99
2017-02-03T03:23:25.015Z,99.99
2017-02-03T03:24:05.628Z,99.99
2017-02-03T03:24:47.253Z,99.96
2017-02-03T03:25:27.813Z,99.99
2017-02-03T03:26:08.464Z,99.99
2017-02-03T03:26:49.058Z,99.99
2017-02-03T03:27:29.618Z,99.99
2017-02-03T03:28:11.290Z,99.99
2017-02-03T03:28:53.927Z,99.99
2017-02-03T03:29:34.578Z,99.67
2017-02-03T03:30:16.264Z,99.99
2017-02-03T03:30:56.908Z,99.67
2017-02-03T03:31:37.562Z,99.67
2017-02-03T03:32:18.214Z,99.67
2017-02-03T03:32:58.866Z,99.58
2017-02-03T03:33:39.448Z,99.58
2017-02-03T03:34:20.090Z,99.67
2017-02-03T03:35:00.664Z,99.77
2017-02-03T03:35:41.293Z,99.99
2017-02-03T03:36:21.939Z,99.67
2017-02-03T03:37:02.497Z,99.86
2017-02-03T03:37:43.188Z,99.67
2017-02-03T03:38:23.739Z,99.99
2017-02-03T03:39:04.274Z,99.99
2017-02-03T03:39:44.903Z,99.86
2017-02-03T03:40:25.538Z,99.99
2017-02-03T03:41:06.117Z,99.99
2017-02-03T03:41:47.780Z,99.99
2017-02-03T03:42:29.454Z,99.99
2017-02-03T03:43:10.049Z,99.99
2017-02-03T03:43:50.670Z,99.99
2017-02-03T03:44:31.312Z,99.96
2017-02-03T03:45:11.976Z,99.86
2017-02-03T03:45:52.663Z,99.96
2017-02-03T03:46:33.320Z,99.86
2017-02-03T03:47:13.970Z,99.96
2017-02-03T03:47:54.626Z,99.99
2017-02-03T03:48:35.283Z,99.99
2017-02-03T03:49:15.978Z,99.67
2017-02-03T03:49:56.545Z,99.67
2017-02-03T03:50:37.210Z,99.99
2017-02-03T03:51:18.911Z,99.86
2017-02-03T03:51:59.606Z,99.99
2017-02-03T03:52:40.179Z,99.99
2017-02-03T03:53:20.833Z,99.99
2017-02-03T03:54:01.420Z,99.99
2017-02-03T03:54:42.061Z,99.67
2017-02-03T03:55:22.727Z,99.99
2017-02-03T03:56:03.381Z,99.86
2017-02-03T03:56:44.020Z,99.67
2017-02-03T03:57:24.683Z,99.67
2017-02-03T03:58:05.341Z,99.58
2017-02-03T03:58:45.994Z,99.86
2017-02-03T03:59:26.644Z,99.86
2017-02-03T04:00:07.297Z,99.86
2017-02-03T04:00:48.975Z,99.86
2017-02-03T04:01:29.551Z,99.96
2017-02-03T04:02:10.141Z,99.86
2017-02-03T04:02:51.813Z,99.77
2017-02-03T04:03:32.485Z,99.77
2017-02-03T04:04:13.047Z,99.67
2017-02-03T04:04:53.653Z,99.48
2017-02-03T04:05:34.226Z,99.77
2017-02-03T04:06:14.869Z,99.96
2017-02-03T04:06:56.478Z,99.96
2017-02-03T04:07:37.089Z,99.48
2017-02-03T04:08:17.682Z,99.99
2017-02-03T04:08:58.305Z,99.99
2017-02-03T04:09:39.910Z,99.99
2017-02-03T04:10:20.513Z,99.99
2017-02-03T04:11:01.126Z,99.99
2017-02-03T04:11:41.735Z,99.99
2017-02-03T04:12:22.320Z,99.99
2017-02-03T04:13:02.925Z,99.99
2017-02-03T04:13:43.483Z,99.99
2017-02-03T04:14:24.161Z,99.99
2017-02-03T04:15:04.804Z,99.99
2017-02-03T04:15:45.440Z,99.99
2017-02-03T04:16:26.013Z,99.99
2017-02-03T04:17:06.631Z,99.99
2017-02-03T04:17:47.296Z,99.99
2017-02-03T04:18:27.945Z,99.99
2017-02-03T04:19:08.515Z,99.99
2017-02-03T04:19:49.187Z,99.99
2017-02-03T04:20:29.747Z,99.99
2017-02-03T04:21:10.316Z,99.99
2017-02-03T04:21:50.876Z,99.99
2017-02-03T04:22:31.462Z,99.99
2017-02-03T04:23:12.039Z,99.99
2017-02-03T04:23:53.688Z,99.99
2017-02-03T04:24:34.343Z,99.99
2017-02-03T04:25:15.001Z,99.99
2017-02-03T04:25:55.653Z,99.99
2017-02-03T04:26:36.286Z,99.99
2017-02-03T04:27:16.863Z,99.99
2017-02-03T04:27:57.515Z,99.99
2017-02-03T04:28:38.176Z,99.99
2017-02-03T04:29:18.816Z,99.99
2017-02-03T04:29:59.469Z,99.99
2017-02-03T04:30:41.150Z,99.99
2017-02-03T04:31:21.799Z,99.99
2017-02-03T04:32:02.456Z,99.99
2017-02-03T04:32:43.104Z,99.99
2017-02-03T04:33:23.769Z,99.99
2017-02-03T04:34:04.417Z,99.99
2017-02-03T04:34:45.070Z,99.99
2017-02-03T04:35:25.733Z,99.99
2017-02-03T04:36:06.368Z,99.99
2017-02-03T04:36:47.024Z,99.99
2017-02-03T04:37:27.672Z,99.99
2017-02-03T04:38:08.311Z,99.99
2017-02-03T04:38:48.915Z,99.99
2017-02-03T04:39:29.535Z,99.99
2017-02-03T04:40:10.230Z,99.99
2017-02-03T04:40:50.813Z,99.99
2017-02-03T04:41:31.366Z,99.99
2017-02-03T04:42:11.941Z,99.99
2017-02-03T04:42:52.521Z,99.99
2017-02-03T04:43:33.136Z,99.99
2017-02-03T04:44:13.721Z,99.99
2017-02-03T04:44:54.338Z,99.99
2017-02-03T04:45:34.924Z,99.99
2017-02-03T04:46:15.544Z,99.99
2017-02-03T04:46:56.143Z,99.99
2017-02-03T04:47:36.739Z,99.99
2017-02-03T04:48:17.319Z,99.99
2017-02-03T04:48:57.952Z,99.99
2017-02-03T04:49:38.552Z,99.99
2017-02-03T04:50:19.143Z,99.99
2017-02-03T04:50:59.714Z,99.99
2017-02-03T04:51:40.358Z,99.99
2017-02-03T04:52:20.958Z,99.99
2017-02-03T04:53:01.555Z,99.99
2017-02-03T04:53:42.127Z,99.99
2017-02-03T04:54:22.781Z,99.99
2017-02-03T04:55:03.438Z,99.99
2017-02-03T04:55:44.008Z,99.99
2017-02-03T04:56:24.624Z,99.99
2017-02-03T04:57:05.294Z,99.99
2017-02-03T04:57:45.926Z,99.99
2017-02-03T04:58:26.593Z,99.99
2017-02-03T04:59:07.233Z,99.99
2017-02-03T04:59:47.820Z,99.99
2017-02-03T05:00:28.427Z,99.99
2017-02-03T05:01:08.999Z,99.99
2017-02-03T05:01:49.656Z,99.99
2017-02-03T05:02:30.340Z,99.99
2017-02-03T05:03:10.936Z,99.99
2017-02-03T05:03:51.504Z,99.99
2017-02-03T05:04:32.151Z,99.99
2017-02-03T05:05:12.810Z,99.99
2017-02-03T05:05:53.455Z,99.99
2017-02-03T05:06:34.050Z,99.58
2017-02-03T05:07:14.675Z,99.96
2017-02-03T05:07:55.333Z,99.99
2017-02-03T05:08:35.981Z,99.99
2017-02-03T05:09:16.654Z,99.99
2017-02-03T05:09:58.283Z,99.99
2017-02-03T05:10:38.862Z,99.39
2017-02-03T05:11:19.502Z,99.99
2017-02-03T05:12:00.095Z,99.39
2017-02-03T05:12:41.715Z,99.99
2017-02-03T05:13:22.328Z,99.99
2017-02-03T05:14:02.942Z,99.99
2017-02-03T05:14:43.593Z,99.99
2017-02-03T05:15:24.247Z,99.99
2017-02-03T05:16:04.890Z,99.99
2017-02-03T05:16:45.541Z,99.99
2017-02-03T05:17:26.103Z,99.99
2017-02-03T05:18:06.767Z,99.99
2017-02-03T05:18:48.414Z,99.99
2017-02-03T05:19:29.062Z,99.99
2017-02-03T05:20:09.625Z,99.99
2017-02-03T05:20:50.288Z,99.99
2017-02-03T05:21:31.945Z,99.99
2017-02-03T05:22:12.516Z,99.99
2017-02-03T05:22:54.194Z,99.99
2017-02-03T05:23:34.828Z,99.99
2017-02-03T05:24:15.397Z,99.99
2017-02-03T05:24:56.053Z,99.99
2017-02-03T05:25:36.703Z,99.99
2017-02-03T05:26:17.354Z,99.99
2017-02-03T05:26:58.008Z,99.99
2017-02-03T05:27:38.664Z,99.99
2017-02-03T05:28:19.333Z,99.99
2017-02-03T05:28:59.967Z,99.99
2017-02-03T05:29:40.558Z,99.99
2017-02-03T05:30:21.153Z,99.99
2017-02-03T05:31:01.732Z,99.99
2017-02-03T05:31:42.376Z,99.99
2017-02-03T05:32:22.964Z,99.99
2017-02-03T05:33:03.551Z,99.99
2017-02-03T05:33:44.140Z,99.99
2017-02-03T05:34:24.783Z,99.99
2017-02-03T05:35:05.443Z,99.53
2017-02-03T05:35:46.086Z,99.44
2017-02-03T05:36:26.672Z,99.44
2017-02-03T05:37:07.239Z,99.99
2017-02-03T05:37:47.843Z,99.91
2017-02-03T05:38:28.497Z,99.82
2017-02-03T05:39:09.144Z,99.82
2017-02-03T05:39:49.801Z,99.63
2017-02-03T05:40:30.452Z,99.82
2017-02-03T05:41:11.124Z,99.63
2017-02-03T05:41:51.757Z,99.82
2017-02-03T05:42:32.331Z,99.99
2017-02-03T05:43:13.983Z,99.99
2017-02-03T05:43:54.637Z,99.91
2017-02-03T05:44:35.338Z,99.82
2017-02-03T05:45:15.925Z,99.91
2017-02-03T05:45:56.506Z,99.63
2017-02-03T05:46:37.149Z,99.91
2017-02-03T05:47:17.770Z,99.82
2017-02-03T05:47:58.440Z,99.91
2017-02-03T05:48:39.006Z,99.91
2017-02-03T05:49:19.673Z,99.82
2017-02-03T05:50:00.317Z,99.82
2017-02-03T05:50:40.961Z,99.82
2017-02-03T05:51:21.624Z,99.82
2017-02-03T05:52:02.276Z,99.91
2017-02-03T05:52:42.917Z,99.82
2017-02-03T05:53:23.558Z,99.99
2017-02-03T05:54:05.246Z,99.82
2017-02-03T05:54:45.886Z,99.91
2017-02-03T05:55:26.538Z,99.82
2017-02-03T05:56:07.200Z,99.82
2017-02-03T05:56:47.846Z,99.82
2017-02-03T05:57:28.499Z,99.99
2017-02-03T05:58:09.145Z,99.91
2017-02-03T05:58:49.807Z,99.99
2017-02-03T05:59:30.417Z,99.91
2017-02-03T06:00:11.012Z,99.82
2017-02-03T06:00:51.620Z,99.91
2017-02-03T06:01:32.214Z,99.91
2017-02-03T06:02:12.780Z,99.72
2017-02-03T06:02:53.431Z,99.99
2017-02-03T06:03:34.025Z,99.99
2017-02-03T06:04:14.616Z,99.82
2017-02-03T06:04:55.273Z,99.99
2017-02-03T06:05:35.942Z,99.99
2017-02-03T06:06:17.600Z,99.99
2017-02-03T06:06:58.255Z,99.99
2017-02-03T06:07:38.915Z,99.82
2017-02-03T06:08:20.584Z,99.82
2017-02-03T06:09:01.239Z,99.72
2017-02-03T06:09:41.889Z,99.82
2017-02-03T06:10:22.544Z,99.82
2017-02-03T06:11:03.184Z,99.72
2017-02-03T06:11:43.851Z,99.82
2017-02-03T06:12:24.503Z,99.99
2017-02-03T06:13:05.076Z,99.72
2017-02-03T06:13:45.727Z,99.72
2017-02-03T06:14:26.296Z,99.72
2017-02-03T06:15:07.949Z,99.99
2017-02-03T06:15:49.628Z,99.63
2017-02-03T06:16:30.289Z,99.72
2017-02-03T06:17:10.943Z,99.82
2017-02-03T06:17:51.582Z,99.72
2017-02-03T06:18:32.251Z,99.72
2017-02-03T06:19:13.935Z,99.91
2017-02-03T06:19:55.591Z,99.99
2017-02-03T06:20:36.254Z,99.99
2017-02-03T06:21:16.885Z,99.99
2017-02-03T06:21:57.500Z,99.99
2017-02-03T06:22:38.110Z,99.99
2017-02-03T06:23:18.763Z,99.99
2017-02-03T06:23:59.415Z,99.99
2017-02-03T06:24:40.046Z,99.99
2017-02-03T06:25:20.619Z,99.91
2017-02-03T06:26:01.286Z,99.99
2017-02-03T06:26:41.901Z,99.99
2017-02-03T06:27:22.475Z,99.99
2017-02-03T06:28:03.040Z,99.99
2017-02-03T06:28:44.716Z,99.99
2017-02-03T06:29:26.357Z,99.99
2017-02-03T06:30:06.935Z,99.99
2017-02-03T06:30:47.587Z,99.99
2017-02-03T06:31:28.232Z,99.99
2017-02-03T06:32:08.896Z,99.96
2017-02-03T06:32:49.526Z,99.99
2017-02-03T06:33:30.196Z,99.99
2017-02-03T06:34:10.837Z,99.96
2017-02-03T06:34:51.434Z,99.99
2017-02-03T06:35:32.016Z,99.96
2017-02-03T06:36:12.578Z,99.96
2017-02-03T06:36:53.263Z,99.96
2017-02-03T06:37:33.949Z,99.96
2017-02-03T06:38:14.543Z,99.96
2017-02-03T06:38:55.098Z,99.96
2017-02-03T06:39:35.771Z,99.99
2017-02-03T06:40:16.416Z,99.96
2017-02-03T06:40:57.078Z,99.99
2017-02-03T06:41:38.732Z,99.96
2017-02-03T06:42:19.404Z,99.99
2017-02-03T06:43:01.102Z,99.99
2017-02-03T06:43:41.729Z,99.96
2017-02-03T06:44:22.380Z,99.99
2017-02-03T06:45:03.035Z,99.96
2017-02-03T06:45:43.680Z,99.96
2017-02-03T06:46:24.349Z,99.96
2017-02-03T06:47:04.994Z,99.99
2017-02-03T06:47:45.646Z,99.99
2017-02-03T06:48:26.287Z,99.99
2017-02-03T06:49:06.878Z,99.99
2017-02-03T06:49:47.484Z,99.99
2017-02-03T06:50:28.043Z,99.99
2017-02-03T06:51:09.754Z,99.96
2017-02-03T06:51:50.420Z,99.96
2017-02-03T06:52:31.118Z,99.99
2017-02-03T06:53:11.688Z,99.99
2017-02-03T06:53:53.365Z,99.99
2017-02-03T06:54:33.962Z,99.99
2017-02-03T06:55:14.549Z,99.99
2017-02-03T06:55:55.117Z,99.99
2017-02-03T06:56:35.767Z,99.99
2017-02-03T06:57:16.465Z,99.96
2017-02-03T06:57:58.191Z,99.99
2017-02-03T06:58:38.757Z,99.96
2017-02-03T06:59:19.413Z,99.99
2017-02-03T07:00:00.061Z,99.99
2017-02-03T07:00:40.713Z,99.96
2017-02-03T07:01:21.280Z,99.99
2017-02-03T07:02:01.893Z,99.99
2017-02-03T07:02:42.573Z,99.96
2017-02-03T07:03:23.243Z,99.99
2017-02-03T07:04:03.966Z,99.99
2017-02-03T07:04:44.675Z,99.99
2017-02-03T07:05:25.361Z,99.99
2017-02-03T07:06:05.935Z,99.99
2017-02-03T07:06:46.612Z,99.99
2017-02-03T07:07:27.287Z,99.99
2017-02-03T07:08:07.979Z,99.99
2017-02-03T07:08:48.567Z,99.96
2017-02-03T07:09:30.228Z,99.99
2017-02-03T07:10:12.987Z,99.96
2017-02-03T07:10:54.686Z,99.99
2017-02-03T07:11:35.261Z,99.99
2017-02-03T07:12:16.930Z,99.99
2017-02-03T07:12:57.612Z,99.99
2017-02-03T07:13:38.324Z,99.99
2017-02-03T07:14:18.891Z,99.99
2017-02-03T07:15:05.380Z,99.99
2017-02-03T07:15:45.972Z,99.99
2017-02-03T07:16:26.629Z,99.99
2017-02-03T07:17:07.276Z,99.99
2017-02-03T07:17:47.940Z,99.99
2017-02-03T07:18:28.592Z,99.77
2017-02-03T07:19:09.228Z,99.77
2017-02-03T07:19:49.877Z,99.99
2017-02-03T07:20:30.544Z,99.99
2017-02-03T07:21:11.194Z,99.99
2017-02-03T07:21:51.847Z,99.99
2017-02-03T07:22:32.494Z,99.99
2017-02-03T07:23:13.162Z,99.96
2017-02-03T07:23:53.911Z,99.96
2017-02-03T07:24:34.565Z,99.99
2017-02-03T07:25:15.215Z,99.96
2017-02-03T07:25:55.858Z,99.77
2017-02-03T07:26:36.514Z,99.96
2017-02-03T07:27:17.177Z,99.99
2017-02-03T07:27:57.825Z,99.77
2017-02-03T07:28:39.974Z,99.68
2017-02-03T07:29:20.791Z,99.87
2017-02-03T07:30:03.431Z,99.77
2017-02-03T07:30:44.080Z,99.87
2017-02-03T07:31:24.761Z,99.87
2017-02-03T07:32:05.760Z,99.68
2017-02-03T07:32:46.356Z,99.87
2017-02-03T07:33:27.014Z,99.87
2017-02-03T07:34:07.651Z,99.77
2017-02-03T07:34:48.325Z,99.77
2017-02-03T07:35:28.956Z,99.99
2017-02-03T07:36:09.617Z,99.87
2017-02-03T07:36:50.164Z,99.99
2017-02-03T07:37:30.825Z,99.96
2017-02-03T07:38:11.556Z,99.99
2017-02-03T07:38:52.225Z,99.99
2017-02-03T07:39:32.881Z,99.99
2017-02-03T07:40:13.527Z,99.99
2017-02-03T07:40:54.180Z,99.99
2017-02-03T07:41:34.830Z,99.99
2017-02-03T07:42:15.502Z,99.99
2017-02-03T07:42:56.152Z,99.99
2017-02-03T07:43:36.794Z,99.99
2017-02-03T07:44:17.450Z,99.91
2017-02-03T07:44:58.188Z,99.99
2017-02-03T07:45:38.751Z,99.99
2017-02-03T07:46:19.429Z,99.99
2017-02-03T07:47:00.101Z,99.99
2017-02-03T07:47:40.792Z,99.91
2017-02-03T07:48:21.356Z,99.99
2017-02-03T07:49:02.012Z,99.99
2017-02-03T07:49:42.751Z,99.99
2017-02-03T07:50:23.322Z,99.99
2017-02-03T07:51:03.990Z,99.99
2017-02-03T07:51:44.717Z,99.99
2017-02-03T07:52:25.277Z,99.99
2017-02-03T07:53:05.937Z,99.99
2017-02-03T07:53:47.597Z,99.99
2017-02-03T07:54:28.164Z,99.99
2017-02-03T07:55:08.810Z,99.99
2017-02-03T07:55:49.462Z,99.99
2017-02-03T07:56:30.119Z,99.99
2017-02-03T07:57:10.776Z,99.99
2017-02-03T07:57:51.644Z,99.99
2017-02-03T07:58:32.280Z,99.99
2017-02-03T07:59:12.936Z,99.99
2017-02-03T07:59:53.575Z,99.99
2017-02-03T08:00:34.135Z,99.99
2017-02-03T08:01:14.777Z,99.99
2017-02-03T08:01:56.456Z,99.99
2017-02-03T08:02:37.030Z,99.99
2017-02-03T08:03:17.673Z,99.54
2017-02-03T08:03:58.302Z,99.63
2017-02-03T08:04:38.872Z,99.99
2017-02-03T08:05:19.534Z,99.99
2017-02-03T08:06:00.305Z,99.99
2017-02-03T08:06:41.019Z,99.99
2017-02-03T08:07:21.703Z,99.99
2017-02-03T08:08:02.370Z,99.99
2017-02-03T08:08:43.200Z,99.99
2017-02-03T08:09:23.947Z,99.99
2017-02-03T08:10:04.660Z,99.99
2017-02-03T08:10:46.380Z,99.99
2017-02-03T08:11:26.970Z,99.58
2017-02-03T08:12:07.700Z,99.97
2017-02-03T08:12:49.351Z,99.58
2017-02-03T08:13:29.923Z,99.49
2017-02-03T08:14:10.583Z,99.68
2017-02-03T08:14:53.324Z,99.87
2017-02-03T08:15:34.022Z,99.49
2017-02-03T08:16:14.580Z,99.97
2017-02-03T08:16:55.227Z,99.77
2017-02-03T08:17:35.934Z,99.87
2017-02-03T08:18:16.628Z,99.77
2017-02-03T08:18:57.241Z,99.87
2017-02-03T08:19:38.977Z,99.87
2017-02-03T08:20:19.571Z,99.68
2017-02-03T08:21:01.284Z,99.68
2017-02-03T08:21:41.857Z,99.99
2017-02-03T08:22:27.319Z,99.87
2017-02-03T08:23:07.917Z,99.68
2017-02-03T08:23:48.613Z,99.77
2017-02-03T08:24:29.200Z,99.99
2017-02-03T08:25:09.762Z,99.97
2017-02-03T08:25:50.475Z,99.97
2017-02-03T08:26:31.150Z,99.99
2017-02-03T08:27:12.807Z,99.77
2017-02-03T08:27:53.468Z,99.99
2017-02-03T08:28:34.126Z,99.99
2017-02-03T08:29:15.801Z,99.87
2017-02-03T08:29:56.446Z,99.87
2017-02-03T08:30:37.106Z,99.87
2017-02-03T08:31:17.845Z,99.97
2017-02-03T08:31:58.498Z,99.97
2017-02-03T08:32:39.164Z,99.99
2017-02-03T08:33:19.834Z,99.77
2017-02-03T08:34:00.460Z,99.87
2017-02-03T08:34:41.142Z,99.99
2017-02-03T08:35:22.817Z,99.99
2017-02-03T08:36:03.459Z,99.99
2017-02-03T08:36:44.108Z,99.77
2017-02-03T08:37:24.805Z,99.77
2017-02-03T08:38:05.508Z,99.87
2017-02-03T08:38:46.165Z,99.87
2017-02-03T08:39:26.820Z,99.87
2017-02-03T08:40:07.476Z,99.77
2017-02-03T08:40:48.118Z,99.87
2017-02-03T08:41:28.787Z,99.83
2017-02-03T08:42:09.435Z,99.87
2017-02-03T08:42:50.078Z,99.83
2017-02-03T08:43:30.741Z,99.99
2017-02-03T08:44:11.389Z,99.99
2017-02-03T08:44:51.970Z,99.99
2017-02-03T08:45:32.574Z,99.99